Time;durP1;ratioP1;P1;durP2;ratioP2;P2;SDS_P1;SDS_P2;PMS_P1;PMS_P2;Temp;Humidity;BMP_temperature;BMP_pressure;BME280_temperature;BME280_humidity;BME280_pressure;Samples;Min_cycle;Max_cycle;Signal;HPM_P1;HPM_P2
2024/03/08 00:00:18;;;;;;;27.23;15.70;;;;;;;3.74;99.00;152324.66;4953589;28;20451;-84
2024/03/08 00:02:45;;;;;;;25.10;15.33;;;;;;;3.69;98.87;152311.78;4968016;28;20490;-84
2024/03/08 00:05:12;;;;;;;20.47;12.30;;;;;;;3.65;99.10;152302.75;4950497;28;20951;-84
2024/03/08 00:07:40;;;;;;;21.20;14.90;;;;;;;3.65;98.79;152302.75;4967638;28;20584;-84
2024/03/08 00:10:10;;;;;;;20.40;14.00;;;;;;;3.63;99.27;152297.63;4970082;28;20501;-84
2024/03/08 00:12:37;;;;;;;23.90;13.73;;;;;;;3.65;98.97;152301.50;4954144;28;20502;-84
2024/03/08 00:15:06;;;;;;;21.10;14.60;;;;;;;3.60;99.26;152289.88;4974742;28;20482;-84
2024/03/08 00:17:32;;;;;;;20.20;13.70;;;;;;;3.55;99.33;152277.03;4983696;28;20468;-84
2024/03/08 00:19:59;;;;;;;22.17;14.07;;;;;;;3.57;98.66;152282.16;4984824;28;20442;-75
2024/03/08 00:22:25;;;;;;;23.50;14.47;;;;;;;3.55;98.83;152277.03;4964157;28;20451;-75
2024/03/08 00:24:53;;;;;;;20.33;13.17;;;;;;;3.49;99.33;152260.31;4968727;28;20854;-75
2024/03/08 00:27:21;;;;;;;19.80;12.67;;;;;;;3.47;99.05;152256.44;4969072;28;20841;-75
2024/03/08 00:29:47;;;;;;;21.57;14.30;;;;;;;3.47;98.80;152255.13;4968234;28;20809;-75
2024/03/08 00:32:14;;;;;;;20.73;13.90;;;;;;;3.43;99.02;152246.16;4983773;28;20497;-75
2024/03/08 00:34:40;;;;;;;19.83;12.97;;;;;;;3.39;99.54;152235.81;4966050;28;20439;-75
2024/03/08 00:37:08;;;;;;;21.33;14.67;;;;;;;3.38;99.74;152233.28;4968796;28;20463;-75
2024/03/08 00:39:35;;;;;;;20.17;14.17;;;;;;;3.39;99.78;152235.81;4968443;28;20855;-75
2024/03/08 00:42:03;;;;;;;23.20;13.63;;;;;;;3.34;99.28;152222.97;4967567;28;20498;-75
2024/03/08 00:44:29;;;;;;;18.67;14.17;;;;;;;3.33;99.86;152219.13;4979756;28;20454;-75
2024/03/08 00:46:56;;;;;;;21.80;14.50;;;;;;;3.31;99.41;152215.22;4983862;28;20439;-75
2024/03/08 00:49:22;;;;;;;20.50;13.87;;;;;;;3.31;99.86;152215.22;4955897;28;20495;-75
2024/03/08 00:51:49;;;;;;;18.07;13.47;;;;;;;3.27;98.91;152204.97;4967454;28;20489;-75
2024/03/08 00:54:16;;;;;;;19.63;14.27;;;;;;;3.24;99.37;152197.22;4967159;28;20454;-75
2024/03/08 00:56:43;;;;;;;21.10;14.50;;;;;;;3.24;99.62;152197.22;4970305;28;20470;-75
2024/03/08 00:59:11;;;;;;;19.73;13.77;;;;;;;3.18;99.40;152181.78;4966447;28;20566;-75
2024/03/08 01:01:37;;;;;;;16.67;11.60;;;;;;;3.19;99.53;152183.06;4969036;28;21020;-75
2024/03/08 01:04:04;;;;;;;21.50;13.00;;;;;;;3.20;99.40;152186.97;4967255;28;20509;-75
2024/03/08 01:06:30;;;;;;;18.60;13.40;;;;;;;3.15;98.76;152174.03;4966889;28;20577;-75
2024/03/08 01:08:57;;;;;;;19.80;13.40;;;;;;;3.13;99.54;152168.91;4967414;28;20450;-75
2024/03/08 01:11:24;;;;;;;22.73;14.10;;;;;;;3.16;99.70;152176.66;4968890;28;20884;-75
2024/03/08 01:13:50;;;;;;;19.03;13.37;;;;;;;3.10;99.45;152161.19;4963178;28;20858;-75
2024/03/08 01:16:25;;;;;;;21.47;15.03;;;;;;;3.01;100.00;152138.06;4981969;28;20509;-75
2024/03/08 01:18:51;;;;;;;20.90;13.50;;;;;;;3.06;99.58;152152.22;4967188;28;20442;-75
2024/03/08 01:21:18;;;;;;;19.87;13.67;;;;;;;3.08;100.00;152156.06;4981899;28;20446;-75
2024/03/08 01:23:45;;;;;;;21.93;14.37;;;;;;;2.99;99.79;152134.16;4956541;28;21913;-75
2024/03/08 01:26:11;;;;;;;18.90;11.93;;;;;;;3.04;100.00;152145.78;4965502;28;20462;-75
2024/03/08 01:28:38;;;;;;;22.57;14.20;;;;;;;3.00;99.97;152135.47;4982746;28;20453;-75
2024/03/08 01:31:05;;;;;;;22.57;13.50;;;;;;;3.03;100.00;152143.19;4964199;28;20474;-75
2024/03/08 01:33:33;;;;;;;19.70;13.87;;;;;;;2.99;100.00;152134.16;4953952;28;20450;-75
2024/03/08 01:36:00;;;;;;;22.47;12.50;;;;;;;2.96;100.00;152125.19;4966991;28;20461;-75
2024/03/08 01:38:26;;;;;;;18.00;12.93;;;;;;;2.90;100.00;152109.75;4958893;28;20452;-75
2024/03/08 01:40:53;;;;;;;21.97;13.40;;;;;;;2.87;100.00;152102.00;4960418;28;21016;-75
2024/03/08 01:43:20;;;;;;;21.97;14.10;;;;;;;2.77;100.00;152076.28;4966881;28;20496;-75
2024/03/08 01:45:47;;;;;;;19.33;13.50;;;;;;;2.76;100.00;152073.72;4986364;28;20444;-75
2024/03/08 01:48:14;;;;;;;19.37;12.57;;;;;;;2.79;100.00;152081.44;4969291;28;20443;-75
2024/03/08 01:50:42;;;;;;;20.27;12.67;;;;;;;2.80;100.00;152085.31;4980485;28;20474;-75
2024/03/08 01:53:11;;;;;;;19.80;12.43;;;;;;;2.78;100.00;152078.88;4985309;28;20828;-75
2024/03/08 01:55:38;;;;;;;22.57;12.23;;;;;;;2.76;100.00;152075.00;4968928;28;20469;-75
2024/03/08 01:58:05;;;;;;;19.83;12.40;;;;;;;2.77;100.00;152077.59;4972679;28;20466;-84
2024/03/08 02:00:32;;;;;;;20.67;12.53;;;;;;;2.76;100.00;152073.72;4970809;28;20798;-83
2024/03/08 02:02:59;;;;;;;19.67;13.43;;;;;;;2.79;99.60;152081.44;4986400;28;20446;-84
2024/03/08 02:05:26;;;;;;;18.97;12.60;;;;;;;2.82;99.73;152089.16;4984870;28;21242;-84
2024/03/08 02:07:54;;;;;;;20.50;13.30;;;;;;;2.75;99.63;152071.16;4961630;28;20552;-84
2024/03/08 02:10:22;;;;;;;19.03;12.03;;;;;;;2.70;99.67;152059.56;4971267;28;20461;-84
2024/03/08 02:12:48;;;;;;;17.80;11.77;;;;;;;2.60;100.00;152032.53;4967709;28;20475;-84
2024/03/08 02:15:15;;;;;;;20.07;12.70;;;;;;;2.55;100.00;152019.69;4965600;28;20816;-83
2024/03/08 02:17:41;;;;;;;15.77;10.97;;;;;;;2.50;100.00;152006.84;4972609;28;20863;-84
2024/03/08 02:20:10;;;;;;;18.80;12.10;;;;;;;2.56;99.87;152022.28;4970922;28;20454;-84
2024/03/08 02:22:39;;;;;;;18.80;12.07;;;;;;;2.55;100.00;152019.69;4984917;28;20545;-84
2024/03/08 02:25:06;;;;;;;17.10;11.00;;;;;;;2.56;99.89;152022.28;4967023;28;20517;-83
2024/03/08 02:27:32;;;;;;;19.00;12.70;;;;;;;2.57;99.73;152026.13;4968866;28;20474;-83
2024/03/08 02:29:59;;;;;;;17.47;11.80;;;;;;;2.51;99.65;152009.41;4969041;28;20804;-83
2024/03/08 02:32:26;;;;;;;17.53;10.17;;;;;;;2.54;99.66;152017.16;4977983;28;20932;-83
2024/03/08 02:34:59;;;;;;;16.40;11.47;;;;;;;2.55;99.22;152019.69;4970998;28;20445;-83
2024/03/08 02:37:26;;;;;;;18.70;12.93;;;;;;;2.46;99.78;151997.84;4967931;28;20485;-83
2024/03/08 02:39:54;;;;;;;17.83;12.50;;;;;;;2.42;99.57;151987.53;4952891;28;20533;-83
2024/03/08 02:42:20;;;;;;;14.93;10.93;;;;;;;2.34;99.72;151968.25;4980251;28;20466;-83
2024/03/08 02:44:47;;;;;;;19.43;13.43;;;;;;;2.34;99.71;151968.25;4969581;28;20474;-83
2024/03/08 02:47:14;;;;;;;16.83;12.23;;;;;;;2.31;99.79;151959.25;4953861;28;20818;-83
2024/03/08 02:49:40;;;;;;;18.03;12.80;;;;;;;2.36;99.58;151973.41;4952407;28;20438;-83
2024/03/08 02:52:07;;;;;;;16.53;11.07;;;;;;;2.32;99.44;151961.84;4970862;28;20513;-83
2024/03/08 02:54:34;;;;;;;21.40;13.63;;;;;;;2.26;99.80;151947.69;4985989;28;20827;-83
2024/03/08 02:57:03;;;;;;;15.10;10.70;;;;;;;2.26;99.84;151947.69;4978978;28;20984;-82
2024/03/08 02:59:30;;;;;;;20.30;11.53;;;;;;;2.28;99.75;151952.81;4985250;28;20450;-83
2024/03/08 03:01:56;;;;;;;17.87;11.73;;;;;;;2.26;100.00;151946.41;4934579;29;20451;-83
2024/03/08 03:04:23;;;;;;;16.93;12.70;;;;;;;2.24;100.00;151942.56;4960398;28;21053;-83
2024/03/08 03:06:49;;;;;;;16.13;11.80;;;;;;;2.16;100.00;151921.97;4968523;28;20776;-82
2024/03/08 03:09:23;;;;;;;12.77;9.30;;;;;;;2.14;100.00;151916.84;4971256;28;20529;-83
2024/03/08 03:11:49;;;;;;;18.00;11.67;;;;;;;2.15;100.00;151918.09;4969693;28;20475;-83
2024/03/08 03:14:17;;;;;;;13.37;9.53;;;;;;;2.18;100.00;151927.13;4956133;28;20560;-83
2024/03/08 03:16:44;;;;;;;15.17;10.37;;;;;;;2.19;100.00;151929.72;4970848;28;20446;-83
2024/03/08 03:19:10;;;;;;;16.20;12.70;;;;;;;2.11;100.00;151907.84;4970293;28;20487;-83
2024/03/08 03:21:38;;;;;;;21.40;12.80;;;;;;;2.05;100.00;151892.41;4969212;28;20458;-83
2024/03/08 03:24:09;;;;;;;20.00;13.70;;;;;;;2.05;100.00;151893.69;4982673;28;20458;-83
2024/03/08 03:26:37;;;;;;;20.17;11.87;;;;;;;2.06;100.00;151896.28;4969226;28;20911;-83
2024/03/08 03:29:05;;;;;;;21.10;13.03;;;;;;;2.08;100.00;151901.41;4970919;28;20431;-83
2024/03/08 03:31:34;;;;;;;18.10;11.13;;;;;;;2.12;100.00;151911.69;4970563;28;20474;-83
2024/03/08 03:34:02;;;;;;;16.57;11.40;;;;;;;2.13;100.00;151912.97;4967756;28;20454;-83
2024/03/08 03:36:29;;;;;;;18.43;12.03;;;;;;;2.06;100.00;151896.28;4961022;28;20463;-83
2024/03/08 03:39:04;;;;;;;18.07;12.70;;;;;;;2.05;100.00;151892.41;4951700;28;20455;-83
2024/03/08 03:41:31;;;;;;;18.60;11.90;;;;;;;2.03;100.00;151887.25;4966409;28;20568;-83
2024/03/08 03:43:58;;;;;;;17.20;11.20;;;;;;;1.97;100.00;151873.13;4985307;28;20439;-83
2024/03/08 03:46:27;;;;;;;17.63;12.10;;;;;;;1.96;100.00;151870.53;4970205;28;20938;-83
2024/03/08 03:48:55;;;;;;;16.57;11.10;;;;;;;1.93;100.00;151862.88;4970517;28;20538;-84
2024/03/08 03:51:21;;;;;;;20.73;13.20;;;;;;;1.89;100.00;151852.56;4966960;28;20516;-83
2024/03/08 03:53:48;;;;;;;19.80;11.77;;;;;;;1.88;100.00;151849.97;4962646;28;20466;-83
2024/03/08 03:56:15;;;;;;;18.70;13.20;;;;;;;1.85;100.00;151843.53;4958186;28;20509;-84
2024/03/08 03:58:42;;;;;;;17.00;12.70;;;;;;;1.89;100.00;151852.56;4968431;28;20847;-83
2024/03/08 04:01:09;;;;;;;12.30;8.83;;;;;;;1.92;100.00;151860.28;4956848;28;20472;-84
2024/03/08 04:03:36;;;;;;;21.63;13.33;;;;;;;1.91;100.00;151856.44;4965417;28;20436;-84
2024/03/08 04:06:04;;;;;;;16.47;11.77;;;;;;;1.80;100.00;151830.69;4968085;28;20949;-83
2024/03/08 04:08:33;;;;;;;17.70;12.30;;;;;;;1.88;100.00;151848.72;4966811;28;20463;-84
2024/03/08 04:11:01;;;;;;;19.70;12.40;;;;;;;1.86;100.00;151844.84;4968201;28;20942;-84
2024/03/08 04:13:27;;;;;;;16.97;11.93;;;;;;;1.81;100.00;151832.00;4975348;28;20573;-84
2024/03/08 04:15:54;;;;;;;19.97;13.33;;;;;;;1.74;100.00;151815.31;4982983;28;20524;-83
2024/03/08 04:18:20;;;;;;;19.73;12.03;;;;;;;1.69;100.00;151802.47;4980431;28;20811;-84
2024/03/08 04:20:47;;;;;;;19.40;13.97;;;;;;;1.75;100.00;151816.56;4977670;28;20485;-84
2024/03/08 04:23:16;;;;;;;19.53;13.60;;;;;;;1.65;100.00;151790.84;4970056;28;20427;-83
2024/03/08 04:25:43;;;;;;;10.93;8.00;;;;;;;1.67;100.00;151797.28;4967674;28;20897;-84
2024/03/08 04:28:11;;;;;;;20.17;12.60;;;;;;;1.70;100.00;151805.00;4968555;28;20454;-84
2024/03/08 04:30:39;;;;;;;20.27;14.27;;;;;;;1.68;100.00;151798.56;4964964;28;20461;-84
2024/03/08 04:33:06;;;;;;;19.70;13.43;;;;;;;1.66;100.00;151794.75;4968147;28;20823;-85
2024/03/08 04:35:33;;;;;;;19.50;13.93;;;;;;;1.58;100.00;151774.19;4955665;28;20470;-83
2024/03/08 04:37:59;;;;;;;20.57;12.07;;;;;;;1.57;100.00;151770.28;4970741;28;20814;-83
2024/03/08 04:40:27;;;;;;;17.70;11.50;;;;;;;1.53;100.00;151761.34;4979382;28;20477;-84
2024/03/08 04:42:54;;;;;;;19.23;13.10;;;;;;;1.53;100.00;151760.03;4984692;28;20552;-84
2024/03/08 04:45:21;;;;;;;18.20;12.37;;;;;;;1.58;100.00;151772.88;4968151;28;20466;-84
2024/03/08 04:47:48;;;;;;;20.07;14.10;;;;;;;1.60;100.00;151778.00;4985199;28;20450;-83
2024/03/08 04:50:14;;;;;;;24.70;14.37;;;;;;;1.57;100.00;151771.59;4984624;28;20462;-83
2024/03/08 04:52:41;;;;;;;9.37;7.17;;;;;;;1.53;100.00;151760.03;4968511;28;20482;-84
2024/03/08 04:55:07;;;;;;;19.67;11.77;;;;;;;1.55;100.00;151765.16;4982958;28;20467;-73
2024/03/08 04:57:35;;;;;;;26.57;15.50;;;;;;;1.48;100.00;151748.50;4968200;28;20435;-74
2024/03/08 05:00:04;;;;;;;20.47;9.43;;;;;;;1.50;100.00;151752.31;4966929;28;20450;-74
2024/03/08 05:02:31;;;;;;;20.00;12.63;;;;;;;1.53;100.00;151760.03;4967032;28;20565;-74
2024/03/08 05:04:57;;;;;;;23.40;15.07;;;;;;;1.47;100.00;151744.59;4968580;28;20514;-74
2024/03/08 05:07:24;;;;;;;24.17;15.37;;;;;;;1.41;100.00;151730.47;4972770;28;20486;-74
2024/03/08 05:09:52;;;;;;;21.70;13.87;;;;;;;1.41;100.00;151730.47;4951319;29;20436;-75
2024/03/08 05:12:18;;;;;;;20.40;14.23;;;;;;;1.39;100.00;151725.34;4976985;28;20588;-74
2024/03/08 05:14:49;;;;;;;22.00;13.97;;;;;;;1.38;100.00;151722.75;4969652;28;20450;-74
2024/03/08 05:17:16;;;;;;;26.47;16.57;;;;;;;1.40;100.00;151726.63;4949478;28;20870;-74
2024/03/08 05:19:42;;;;;;;29.63;17.73;;;;;;;1.43;100.00;151735.59;5006711;23;20463;-74
2024/03/08 05:22:09;;;;;;;26.70;15.73;;;;;;;1.40;100.00;151726.63;5028138;28;20467;-74
2024/03/08 05:24:37;;;;;;;24.30;15.03;;;;;;;1.36;100.00;151717.63;5021450;28;20453;-73
2024/03/08 05:27:04;;;;;;;29.30;16.83;;;;;;;1.37;100.00;151718.91;5040084;28;20459;-74
2024/03/08 05:29:33;;;;;;;24.47;13.97;;;;;;;1.37;100.00;151718.91;5036161;28;20767;-74
2024/03/08 05:32:03;;;;;;;22.30;15.10;;;;;;;1.39;100.00;151725.34;5026844;28;20538;-74
2024/03/08 05:34:31;;;;;;;20.80;14.53;;;;;;;1.38;100.00;151721.50;5028928;28;20457;-74
2024/03/08 05:36:58;;;;;;;26.13;15.03;;;;;;;1.33;100.00;151709.91;5024871;28;20456;-74
2024/03/08 05:39:24;;;;;;;19.30;13.50;;;;;;;1.35;100.00;151713.78;5007226;28;20478;-75
2024/03/08 05:41:52;;;;;;;20.87;13.93;;;;;;;1.32;100.00;151706.06;5024592;28;20562;-74
2024/03/08 05:44:19;;;;;;;20.27;13.10;;;;;;;1.36;100.00;151716.31;5042796;28;20447;-74
2024/03/08 05:46:46;;;;;;;20.23;12.87;;;;;;;1.35;100.00;151715.03;5033555;28;21036;-75
2024/03/08 05:49:14;;;;;;;24.60;15.23;;;;;;;1.34;100.00;151711.19;5046205;28;20894;-73
2024/03/08 05:51:41;;;;;;;21.30;13.93;;;;;;;1.33;100.00;151709.91;5024504;28;20472;-74
2024/03/08 05:54:11;;;;;;;18.07;11.17;;;;;;;1.32;100.00;151706.06;5025820;28;20476;-73
2024/03/08 05:56:38;;;;;;;20.70;12.83;;;;;;;1.32;100.00;151707.38;5026172;28;20539;-73
2024/03/08 05:59:05;;;;;;;21.63;14.50;;;;;;;1.30;100.00;151702.19;5025277;28;20463;-74
2024/03/08 06:01:32;;;;;;;26.60;14.90;;;;;;;1.36;100.00;151716.31;5023215;28;20463;-75
2024/03/08 06:04:01;;;;;;;26.40;14.53;;;;;;;1.31;100.00;151703.50;5019942;28;20452;-74
2024/03/08 06:06:29;;;;;;;21.33;14.77;;;;;;;1.31;100.00;151703.50;5015880;28;20944;-75
2024/03/08 06:08:58;;;;;;;23.30;14.30;;;;;;;1.31;100.00;151703.50;5031799;28;20460;-73
2024/03/08 06:11:28;;;;;;;22.30;13.00;;;;;;;1.36;100.00;151716.31;5014426;28;20984;-75
2024/03/08 06:13:59;;;;;;;20.40;13.47;;;;;;;1.40;100.00;151727.94;5018769;28;20476;-75
2024/03/08 06:16:28;;;;;;;25.70;16.77;;;;;;;1.42;100.00;151731.75;5017636;28;20456;-73
2024/03/08 06:18:57;;;;;;;21.17;14.20;;;;;;;1.39;100.00;151725.34;5014751;28;20452;-74
2024/03/08 06:21:25;;;;;;;23.33;15.27;;;;;;;1.40;100.00;151726.63;5013197;28;21157;-73
2024/03/08 06:23:54;;;;;;;21.90;14.50;;;;;;;1.35;100.00;151713.78;5018070;28;20452;-74
2024/03/08 06:26:21;;;;;;;22.53;15.47;;;;;;;1.38;100.00;151721.50;5016698;28;20889;-74
2024/03/08 06:28:48;;;;;;;23.70;13.77;;;;;;;1.40;100.00;151726.63;5014785;28;20456;-75
2024/03/08 06:31:15;;;;;;;21.63;15.03;;;;;;;1.44;100.00;151738.19;5015998;28;20510;-75
2024/03/08 06:33:42;;;;;;;21.60;13.17;;;;;;;1.44;100.00;151738.19;5020673;28;20475;-74
2024/03/08 06:36:11;;;;;;;24.30;13.87;;;;;;;1.46;100.00;151742.00;5001118;28;20821;-75
2024/03/08 06:38:42;;;;;;;16.33;11.20;;;;;;;1.51;100.00;151754.91;5020037;28;20435;-75
2024/03/08 06:41:14;;;;;;;23.90;14.67;;;;;;;1.56;100.00;151767.75;5018274;28;20445;-75
2024/03/08 06:43:41;;;;;;;20.70;13.50;;;;;;;1.59;100.00;151776.72;5031945;28;20656;-74
2024/03/08 06:46:08;;;;;;;21.53;14.57;;;;;;;1.63;100.00;151787.03;5034385;28;20447;-75
2024/03/08 06:48:35;;;;;;;23.87;14.07;;;;;;;1.66;100.00;151793.44;5018205;28;20777;-74
2024/03/08 06:51:01;;;;;;;23.90;15.60;;;;;;;1.67;100.00;151795.97;5017269;28;20584;-74
2024/03/08 06:53:28;;;;;;;26.20;15.50;;;;;;;1.68;100.00;151799.88;5016024;28;20905;-74
2024/03/08 06:55:54;;;;;;;27.70;16.50;;;;;;;1.67;100.00;151795.97;5015480;28;20460;-74
2024/03/08 06:58:22;;;;;;;23.57;14.37;;;;;;;1.72;100.00;151810.13;5019099;28;20470;-74
2024/03/08 07:00:51;;;;;;;24.47;14.87;;;;;;;1.83;100.00;151837.13;5018681;28;20492;-74
2024/03/08 07:05:59;;;;;;;21.57;13.87;;;;;;;1.84;100.00;151839.72;5037594;28;20516;-84
2024/03/08 07:08:26;;;;;;;21.70;14.87;;;;;;;1.85;100.00;151842.28;5021452;28;20474;-84
2024/03/08 07:10:53;;;;;;;27.20;17.60;;;;;;;1.87;100.00;151846.13;5034972;28;20484;-83
2024/03/08 07:13:20;;;;;;;22.23;13.57;;;;;;;1.94;100.00;151865.41;5038874;28;20486;-83
2024/03/08 07:15:48;;;;;;;26.00;17.27;;;;;;;1.96;100.00;151870.53;5020383;28;20450;-83
2024/03/08 07:18:14;;;;;;;20.67;13.17;;;;;;;1.96;100.00;151870.53;5039208;28;20463;-83
2024/03/08 07:20:41;;;;;;;21.10;13.87;;;;;;;2.00;100.00;151880.84;5036267;28;20475;-83
2024/03/08 07:23:10;;;;;;;22.50;14.57;;;;;;;2.04;100.00;151889.84;5040445;28;20830;-83
2024/03/08 07:25:39;;;;;;;23.43;16.23;;;;;;;2.01;100.00;151883.44;5034830;28;20562;-83
2024/03/08 07:28:06;;;;;;;23.50;16.33;;;;;;;2.01;100.00;151882.13;5038779;28;20458;-83
2024/03/08 07:33:18;;;;;;;26.60;16.00;;;;;;;2.18;100.00;151925.81;5003957;28;20487;-82
2024/03/08 07:35:45;;;;;;;23.77;13.17;;;;;;;2.12;100.00;151911.69;5038733;28;20451;-82
2024/03/08 07:38:12;;;;;;;21.77;14.63;;;;;;;2.13;100.00;151914.25;5026499;28;20458;-82
2024/03/08 07:40:40;;;;;;;24.33;15.23;;;;;;;2.18;100.00;151927.13;5042677;28;20466;-82
2024/03/08 07:43:07;;;;;;;18.53;13.90;;;;;;;2.23;100.00;151939.97;5026640;28;20992;-82
2024/03/08 07:45:33;;;;;;;20.00;12.77;;;;;;;2.29;100.00;151954.13;5039872;28;20516;-82
2024/03/08 07:48:00;;;;;;;22.23;14.73;;;;;;;2.34;100.00;151968.25;5040923;28;20460;-82
2024/03/08 07:50:28;;;;;;;22.97;14.50;;;;;;;2.42;100.00;151987.53;5042237;28;20460;-81
2024/03/08 07:52:55;;;;;;;22.03;13.93;;;;;;;2.43;100.00;151991.44;5043706;28;20471;-81
2024/03/08 07:55:24;;;;;;;23.20;15.10;;;;;;;2.39;100.00;151979.81;5038170;28;20470;-81
2024/03/08 07:57:51;;;;;;;22.63;15.50;;;;;;;2.32;100.00;151961.84;5043441;28;20531;-81
2024/03/08 08:00:18;;;;;;;21.40;14.40;;;;;;;2.34;100.00;151968.25;5042720;28;20478;-81
2024/03/08 08:02:46;;;;;;;20.43;14.53;;;;;;;2.35;100.00;151970.84;5040514;28;20524;-81
2024/03/08 08:05:13;;;;;;;23.10;13.43;;;;;;;2.38;100.00;151978.53;5036575;28;20839;-80
2024/03/08 08:07:45;;;;;;;19.17;13.00;;;;;;;2.43;100.00;151990.13;5036409;28;20452;-81
2024/03/08 08:10:18;;;;;;;21.63;13.00;;;;;;;2.42;100.00;151988.84;5021543;28;20467;-81
2024/03/08 08:12:45;;;;;;;20.90;14.10;;;;;;;2.45;100.00;151996.56;5040256;28;20473;-82
2024/03/08 08:15:12;;;;;;;21.90;14.20;;;;;;;2.47;100.00;152001.69;5038506;28;20462;-82
2024/03/08 08:17:39;;;;;;;20.70;13.93;;;;;;;2.47;100.00;152001.69;5034389;28;20455;-81
2024/03/08 08:20:06;;;;;;;18.47;11.17;;;;;;;2.49;100.00;152005.53;5018772;28;20450;-82
2024/03/08 08:22:33;;;;;;;20.97;14.50;;;;;;;2.43;100.00;151991.44;5038421;28;20466;-82
2024/03/08 08:25:01;;;;;;;21.13;13.80;;;;;;;2.36;100.00;151973.41;5037335;28;20880;-82
2024/03/08 08:27:28;;;;;;;19.73;13.00;;;;;;;2.41;100.00;151986.25;5041229;28;20830;-82
2024/03/08 08:29:55;;;;;;;19.20;12.10;;;;;;;2.53;100.00;152014.56;5037709;28;21060;-82
2024/03/08 08:32:22;;;;;;;19.60;12.50;;;;;;;2.59;100.00;152030.00;5037267;28;20462;-82
2024/03/08 08:34:48;;;;;;;24.00;14.47;;;;;;;2.65;100.00;152045.44;5019391;28;20489;-83
2024/03/08 08:37:16;;;;;;;19.27;13.73;;;;;;;2.63;100.00;152040.25;5038432;28;20446;-83
2024/03/08 08:39:42;;;;;;;21.70;13.30;;;;;;;2.67;100.00;152051.88;5038928;28;20456;-82
2024/03/08 08:42:11;;;;;;;17.70;12.50;;;;;;;2.76;100.00;152073.72;5042878;28;20455;-83
2024/03/08 08:44:37;;;;;;;20.93;13.27;;;;;;;2.81;100.00;152087.84;5036864;28;20486;-82
2024/03/08 08:47:04;;;;;;;21.20;13.77;;;;;;;2.83;100.00;152091.75;5036166;28;20443;-81
2024/03/08 08:49:31;;;;;;;19.70;13.33;;;;;;;2.88;100.00;152104.59;5023669;28;20447;-82
2024/03/08 08:51:58;;;;;;;20.47;13.97;;;;;;;2.88;100.00;152104.59;5019440;28;20801;-81
2024/03/08 08:54:27;;;;;;;23.50;14.40;;;;;;;2.85;100.00;152096.88;5016181;28;20912;-81
2024/03/08 08:56:54;;;;;;;18.67;13.10;;;;;;;2.86;100.00;152099.47;5025950;28;20475;-82
2024/03/08 08:59:24;;;;;;;21.10;13.70;;;;;;;2.89;100.00;152107.16;5019174;28;20488;-82
2024/03/08 09:01:53;;;;;;;17.40;10.40;;;;;;;2.91;100.00;152112.34;5020368;28;20462;-81
2024/03/08 09:04:21;;;;;;;20.27;14.23;;;;;;;2.91;100.00;152113.56;5020001;28;20536;-81
2024/03/08 09:06:48;;;;;;;22.90;14.00;;;;;;;2.95;100.00;152123.91;5018566;28;20508;-81
2024/03/08 09:09:14;;;;;;;18.67;13.10;;;;;;;2.91;100.00;152112.34;5002578;28;22097;-82
2024/03/08 09:11:42;;;;;;;22.03;13.77;;;;;;;2.93;100.00;152117.47;5036470;28;20529;-81
2024/03/08 09:14:08;;;;;;;18.60;12.70;;;;;;;2.87;100.00;152102.00;5017883;28;21166;-81
2024/03/08 09:16:36;;;;;;;20.03;13.40;;;;;;;2.89;100.00;152107.16;5016273;28;20456;-81
2024/03/08 09:19:03;;;;;;;20.67;14.37;;;;;;;2.94;100.00;152120.00;5039747;28;20546;-82
2024/03/08 09:21:31;;;;;;;21.57;13.43;;;;;;;3.02;100.00;152141.91;5036722;28;20465;-82
2024/03/08 09:23:58;;;;;;;18.93;12.27;;;;;;;3.03;100.00;152143.19;5022818;28;20563;-82
2024/03/08 09:26:25;;;;;;;21.40;13.30;;;;;;;3.06;100.00;152150.91;5035489;28;20541;-82
2024/03/08 09:28:51;;;;;;;18.47;13.67;;;;;;;3.08;100.00;152156.06;5020548;28;20488;-82
2024/03/08 09:31:19;;;;;;;18.50;12.93;;;;;;;3.12;100.00;152166.38;5034852;28;20554;-82
2024/03/08 09:33:49;;;;;;;21.97;14.63;;;;;;;3.14;99.75;152171.50;5034729;28;20483;-82
2024/03/08 09:36:15;;;;;;;20.80;14.50;;;;;;;3.05;100.00;152148.31;5024009;28;20478;-82
2024/03/08 09:38:42;;;;;;;19.07;12.90;;;;;;;3.07;100.00;152153.50;5035855;28;20957;-82
2024/03/08 09:41:10;;;;;;;21.67;13.93;;;;;;;3.06;99.24;152150.91;5023745;28;20463;-82
2024/03/08 09:44:00;;;;;;;18.87;13.77;;;;;;;3.10;98.96;152159.94;5040282;28;20972;-83
2024/03/08 09:46:27;;;;;;;19.33;13.43;;;;;;;3.11;99.49;152163.78;5019769;28;20849;-82
2024/03/08 09:48:55;;;;;;;17.90;11.80;;;;;;;3.23;100.00;152194.63;5040652;28;20447;-82
2024/03/08 09:51:23;;;;;;;19.10;12.47;;;;;;;3.27;99.89;152204.97;5009232;28;20466;-83
2024/03/08 09:53:50;;;;;;;17.83;12.13;;;;;;;3.36;99.33;152226.84;5009662;28;20472;-83
2024/03/08 09:56:17;;;;;;;20.60;14.00;;;;;;;3.43;98.80;152246.16;5028948;28;20484;-82
2024/03/08 09:58:53;;;;;;;22.30;13.33;;;;;;;3.48;98.40;152259.00;5042283;28;20538;-83
2024/03/08 10:01:21;;;;;;;18.33;12.27;;;;;;;3.44;97.74;152248.69;5041236;28;20458;-83
2024/03/08 10:03:49;;;;;;;18.10;11.10;;;;;;;3.50;96.76;152264.16;5036348;28;20458;-83
2024/03/08 10:06:16;;;;;;;17.87;12.20;;;;;;;3.58;97.04;152284.75;5025175;28;20457;-83
2024/03/08 10:08:43;;;;;;;21.57;13.50;;;;;;;3.50;96.24;152264.16;5043612;28;20452;-83
2024/03/08 10:11:11;;;;;;;22.30;12.60;;;;;;;3.47;96.43;152256.44;5021826;28;21005;-83
2024/03/08 10:13:40;;;;;;;20.10;12.80;;;;;;;3.42;95.46;152243.56;5039917;28;20577;-82
2024/03/08 10:16:07;;;;;;;16.03;11.87;;;;;;;3.50;96.44;152264.16;5001948;28;20465;-83
2024/03/08 10:18:34;;;;;;;20.13;13.03;;;;;;;3.62;96.71;152295.06;5022461;28;20577;-82
2024/03/08 10:21:05;;;;;;;20.00;13.40;;;;;;;3.73;96.60;152320.81;5027194;28;20448;-82
2024/03/08 10:23:33;;;;;;;21.70;14.33;;;;;;;3.81;96.98;152341.41;5043821;28;22026;-81
2024/03/08 10:26:10;;;;;;;19.33;13.03;;;;;;;3.85;96.40;152351.69;5040300;28;20451;-82
2024/03/08 10:28:37;;;;;;;19.53;12.83;;;;;;;3.94;96.07;152376.19;5042123;28;20794;-83
2024/03/08 10:31:03;;;;;;;20.13;13.27;;;;;;;4.06;95.51;152407.06;5022809;28;20923;-83
2024/03/08 10:33:30;;;;;;;16.27;11.77;;;;;;;4.07;94.17;152408.38;5022538;28;20471;-83
2024/03/08 10:35:57;;;;;;;14.43;10.30;;;;;;;3.96;93.76;152381.31;5038375;28;20463;-83
2024/03/08 10:38:24;;;;;;;21.03;12.07;;;;;;;3.97;93.96;152383.88;5039254;28;20462;-83
2024/03/08 10:40:54;;;;;;;17.70;12.10;;;;;;;4.06;93.97;152405.78;5023145;28;20502;-83
2024/03/08 10:43:25;;;;;;;16.50;11.60;;;;;;;4.18;94.14;152436.72;5005057;28;20459;-84
2024/03/08 10:45:57;;;;;;;15.67;11.10;;;;;;;4.22;92.62;152447.00;5040716;28;20897;-84
2024/03/08 10:48:31;;;;;;;17.40;12.50;;;;;;;4.34;93.43;152477.94;5038931;28;20458;-83
2024/03/08 10:50:58;;;;;;;12.60;8.30;;;;;;;4.43;92.25;152501.09;5023153;28;20448;-83
2024/03/08 10:53:25;;;;;;;19.07;12.67;;;;;;;4.28;89.95;152462.47;5004008;28;20463;-83
2024/03/08 10:55:54;;;;;;;17.83;12.10;;;;;;;4.24;92.20;152453.44;5021431;28;20467;-83
2024/03/08 10:58:22;;;;;;;18.63;13.07;;;;;;;4.37;92.30;152484.38;5024140;28;20447;-83
2024/03/08 11:00:50;;;;;;;17.20;11.17;;;;;;;4.49;92.77;152516.56;5020503;28;20455;-83
2024/03/08 11:03:45;;;;;;;17.20;12.07;;;;;;;4.55;91.35;152532.03;5016076;28;20466;-84
2024/03/08 11:06:15;;;;;;;17.07;11.37;;;;;;;4.64;91.13;152555.19;5002436;28;20467;-83
2024/03/08 11:08:42;;;;;;;14.70;10.70;;;;;;;4.65;90.74;152557.78;5000707;28;20441;-83
2024/03/08 11:11:27;;;;;;;17.00;11.40;;;;;;;4.47;89.62;152510.13;4999866;28;20800;-83
2024/03/08 11:13:54;;;;;;;16.37;11.83;;;;;;;4.49;90.77;152515.25;5001880;28;20469;-84
2024/03/08 11:16:40;;;;;;;15.07;11.20;;;;;;;4.51;90.34;152521.69;4999345;28;20444;-84
2024/03/08 11:19:23;;;;;;;14.00;10.63;;;;;;;4.67;91.74;152562.94;5000026;28;20448;-84